Time;durP1;ratioP1;P1;durP2;ratioP2;P2;SDS_P1;SDS_P2;PMS_P1;PMS_P2;Temp;Humidity;BMP_temperature;BMP_pressure;BME280_temperature;BME280_humidity;BME280_pressure;Samples;Min_cycle;Max_cycle;Signal;HPM_P1;HPM_P2
2022/07/10 00:04:59;;;;;;;3.12;2.78;;;27.90;48.20;;;;;;4776495;57;21108;-36
2022/07/10 00:10:01;;;;;;;4.15;2.92;;;27.90;48.30;;;;;;5001567;57;21040;-29
2022/07/10 00:15:04;;;;;;;4.53;3.00;;;27.90;48.20;;;;;;4561870;57;21096;-32
2022/07/10 00:20:06;;;;;;;5.10;2.72;;;27.90;48.10;;;;;;4723868;57;21558;-30
2022/07/10 00:25:10;;;;;;;2.90;2.70;;;27.90;48.20;;;;;;4662468;57;21053;-29
2022/07/10 00:30:12;;;;;;;3.30;2.90;;;27.90;48.30;;;;;;4614505;57;21089;-32
2022/07/10 00:35:12;;;;;;;5.05;2.90;;;27.90;48.20;;;;;;4561698;61;21041;-30
2022/07/10 00:40:13;;;;;;;3.10;2.67;;;27.90;48.20;;;;;;4606819;57;21093;-31
2022/07/10 00:45:14;;;;;;;2.83;2.62;;;27.90;48.20;;;;;;4709989;57;21100;-30
2022/07/10 00:50:15;;;;;;;3.75;2.40;;;27.90;48.80;;;;;;4685715;57;21032;-30
2022/07/10 00:55:16;;;;;;;2.80;2.60;;;27.90;48.20;;;;;;4723642;57;21102;-29
2022/07/10 01:00:18;;;;;;;2.95;2.67;;;27.80;48.10;;;;;;4584344;57;21020;-30
2022/07/10 01:05:19;;;;;;;3.28;2.72;;;27.80;48.00;;;;;;4634655;57;21578;-33
2022/07/10 01:10:20;;;;;;;3.33;2.70;;;27.80;47.90;;;;;;4914940;57;21088;-33
2022/07/10 01:15:21;;;;;;;4.90;2.45;;;27.90;48.00;;;;;;4684713;57;21032;-34
2022/07/10 01:20:32;;;;;;;3.17;2.37;;;27.80;47.90;;;;;;4899209;57;21172;-33
2022/07/10 01:25:33;;;;;;;2.95;2.50;;;27.80;47.90;;;;;;4730225;57;21068;-32
2022/07/10 01:30:33;;;;;;;4.32;2.50;;;27.80;47.90;;;;;;4646676;57;21042;-30
2022/07/10 01:35:34;;;;;;;2.70;2.50;;;27.80;48.00;;;;;;4562144;57;21036;-31
2022/07/10 01:40:35;;;;;;;2.65;2.45;;;27.80;48.00;;;;;;5008086;57;21112;-29
2022/07/10 01:45:36;;;;;;;2.65;2.20;;;27.80;48.00;;;;;;4561332;61;21052;-30
2022/07/10 01:50:37;;;;;;;2.58;2.37;;;27.80;47.90;;;;;;4855224;57;21132;-30
2022/07/10 01:55:38;;;;;;;3.85;2.60;;;27.80;47.80;;;;;;4562115;57;21121;-30
2022/07/10 02:00:38;;;;;;;2.58;2.35;;;27.80;47.80;;;;;;4576484;57;21067;-30
2022/07/10 02:05:39;;;;;;;2.40;2.20;;;27.80;47.70;;;;;;4578742;57;21044;-31
2022/07/10 02:10:40;;;;;;;2.85;2.62;;;27.80;47.80;;;;;;4622873;57;21514;-34
2022/07/10 02:15:41;;;;;;;2.60;2.37;;;27.80;47.70;;;;;;4561952;61;20988;-30
2022/07/10 02:20:42;;;;;;;2.45;2.25;;;27.80;47.70;;;;;;4561410;61;21526;-30
2022/07/10 02:25:43;;;;;;;4.03;2.70;;;27.80;47.70;;;;;;5008226;57;21057;-30
2022/07/10 02:30:43;;;;;;;2.45;2.20;;;27.80;47.80;;;;;;4561626;61;21084;-30
2022/07/10 02:35:44;;;;;;;3.47;2.20;;;27.80;47.60;;;;;;4561540;61;21474;-30
2022/07/10 02:40:45;;;;;;;2.70;2.50;;;27.70;47.60;;;;;;4604282;57;21491;-33
2022/07/10 02:45:46;;;;;;;2.45;2.25;;;27.80;47.70;;;;;;4606054;57;21041;-33
2022/07/10 02:50:47;;;;;;;2.72;2.22;;;27.70;48.30;;;;;;4721081;57;21036;-30
2022/07/10 02:55:47;;;;;;;2.50;2.30;;;27.70;47.50;;;;;;4561406;61;21024;-33
2022/07/10 03:00:48;;;;;;;3.12;2.00;;;27.70;47.60;;;;;;4638165;57;21099;-31
2022/07/10 03:05:49;;;;;;;2.47;2.28;;;27.70;47.60;;;;;;4627983;57;21040;-31
2022/07/10 03:10:50;;;;;;;2.47;2.10;;;27.70;47.60;;;;;;4611966;57;21284;-30
2022/07/10 03:15:54;;;;;;;4.30;2.47;;;27.70;47.50;;;;;;4610844;57;21038;-31
2022/07/10 03:20:55;;;;;;;2.15;1.98;;;27.70;47.50;;;;;;4561638;61;21515;-31
2022/07/10 03:25:56;;;;;;;2.17;2.03;;;27.70;47.60;;;;;;4781621;57;21053;-30
2022/07/10 03:30:57;;;;;;;3.28;2.03;;;27.70;47.40;;;;;;4694513;57;21036;-31
2022/07/10 03:35:57;;;;;;;2.33;2.12;;;27.70;47.60;;;;;;4764307;57;21510;-29
2022/07/10 03:40:58;;;;;;;2.65;2.40;;;27.70;47.40;;;;;;4624120;57;21044;-30
2022/07/10 03:45:59;;;;;;;2.60;2.10;;;27.70;47.40;;;;;;4561211;58;21578;-29
2022/07/10 03:51:01;;;;;;;2.30;2.10;;;27.70;47.50;;;;;;4606835;57;21020;-31
2022/07/10 03:56:01;;;;;;;2.33;2.10;;;27.70;47.50;;;;;;4803333;57;21523;-30
2022/07/10 04:01:02;;;;;;;2.62;2.12;;;27.70;47.40;;;;;;4638278;57;21048;-33
2022/07/10 04:06:03;;;;;;;3.35;2.30;;;27.70;47.30;;;;;;4597860;57;21526;-30
2022/07/10 04:11:04;;;;;;;2.25;2.05;;;27.70;47.30;;;;;;4636571;57;21052;-33
2022/07/10 04:16:06;;;;;;;2.40;2.20;;;27.70;47.20;;;;;;4663758;57;21614;-32
2022/07/10 04:21:07;;;;;;;3.55;2.10;;;27.70;47.20;;;;;;4613053;57;21491;-32
2022/07/10 04:26:08;;;;;;;2.92;2.12;;;27.70;47.20;;;;;;4703464;57;21064;-29
2022/07/10 04:31:09;;;;;;;2.33;2.10;;;27.70;47.10;;;;;;4561445;61;21040;-34
2022/07/10 04:36:10;;;;;;;3.28;2.30;;;27.60;47.10;;;;;;4561440;61;21076;-31
2022/07/10 04:41:12;;;;;;;3.20;2.10;;;27.70;47.10;;;;;;4561813;58;21020;-29
2022/07/10 04:46:13;;;;;;;2.30;2.10;;;27.70;47.10;;;;;;4561095;61;21586;-28
2022/07/10 04:51:13;;;;;;;2.35;2.10;;;27.70;47.00;;;;;;4561610;57;21095;-31
2022/07/10 04:56:14;;;;;;;2.45;1.92;;;27.60;46.80;;;;;;4561653;57;21012;-30
2022/07/10 05:01:15;;;;;;;4.07;2.33;;;27.60;46.90;;;;;;4634032;57;21032;-30
2022/07/10 05:06:16;;;;;;;3.15;2.30;;;27.60;46.80;;;;;;4561359;58;21534;-31
2022/07/10 05:11:17;;;;;;;2.40;2.20;;;27.60;46.90;;;;;;4721633;57;21029;-31
2022/07/10 05:16:18;;;;;;;3.08;2.33;;;27.60;46.70;;;;;;4705232;57;21064;-29
2022/07/10 05:21:19;;;;;;;2.55;2.33;;;27.60;46.80;;;;;;4595622;57;21024;-30
2022/07/10 05:26:20;;;;;;;2.42;2.22;;;27.60;46.70;;;;;;4561650;57;21102;-31
2022/07/10 05:31:20;;;;;;;3.08;2.10;;;27.60;46.80;;;;;;4561446;61;20989;-33
2022/07/10 05:36:21;;;;;;;2.80;2.40;;;27.60;46.80;;;;;;4676983;57;21161;-32
2022/07/10 05:41:22;;;;;;;2.62;2.42;;;27.60;46.80;;;;;;4623778;57;21103;-32
2022/07/10 05:46:23;;;;;;;4.07;2.60;;;27.60;46.70;;;;;;4607007;57;21044;-33
2022/07/10 05:51:23;;;;;;;3.92;2.58;;;27.60;46.80;;;;;;4770444;57;21124;-31
2022/07/10 05:56:24;;;;;;;3.00;2.70;;;27.60;46.80;;;;;;4694651;57;21558;-32
2022/07/10 06:01:28;;;;;;;3.55;2.85;;;27.60;46.70;;;;;;4669902;57;21510;-28
2022/07/10 06:06:29;;;;;;;3.15;2.75;;;27.60;46.80;;;;;;4608481;57;21116;-30
2022/07/10 06:11:30;;;;;;;3.37;2.87;;;27.60;46.80;;;;;;4686762;57;21080;-31
2022/07/10 06:16:30;;;;;;;4.47;3.10;;;27.50;46.80;;;;;;4725299;57;21097;-29
2022/07/10 06:21:32;;;;;;;3.75;3.30;;;27.60;46.80;;;;;;4698976;57;21598;-30
2022/07/10 06:26:32;;;;;;;4.95;3.67;;;27.60;46.80;;;;;;4597282;57;21169;-28
2022/07/10 06:31:33;;;;;;;4.45;3.55;;;27.60;46.90;;;;;;4561430;61;21120;-28
2022/07/10 06:36:34;;;;;;;5.68;3.85;;;27.50;46.80;;;;;;4715543;57;21591;-29
2022/07/10 06:41:35;;;;;;;4.93;3.62;;;27.60;46.90;;;;;;4768326;57;21505;-31
2022/07/10 06:46:35;;;;;;;7.62;4.10;;;27.60;46.90;;;;;;4617586;57;21057;-32
2022/07/10 06:51:36;;;;;;;5.68;3.87;;;27.60;47.00;;;;;;4667820;57;21040;-29
2022/07/10 06:56:38;;;;;;;5.57;4.03;;;27.50;46.80;;;;;;4600909;57;21033;-31
2022/07/10 07:01:38;;;;;;;6.95;4.20;;;27.60;46.90;;;;;;4781119;57;21511;-34
2022/07/10 07:06:39;;;;;;;6.47;4.57;;;27.60;47.00;;;;;;4656638;57;21072;-30
2022/07/10 07:11:40;;;;;;;6.47;4.25;;;27.60;47.00;;;;;;4561672;58;21083;-32
2022/07/10 07:16:57;;;;;;;7.18;4.68;;;27.60;47.00;;;;;;4569631;57;21077;-29
2022/07/10 07:27:18;;;;;;;6.65;4.78;;;27.60;47.00;;;;;;4560659;57;21125;-32
2022/07/10 07:32:19;;;;;;;7.47;4.80;;;27.60;47.00;;;;;;4628492;57;21515;-29
2022/07/10 07:37:20;;;;;;;6.22;4.68;;;27.50;47.00;;;;;;4561500;61;21032;-30
2022/07/10 07:42:20;;;;;;;9.82;5.25;;;27.50;47.00;;;;;;4561518;58;21032;-32
2022/07/10 07:47:21;;;;;;;6.85;4.75;;;27.50;47.00;;;;;;4664237;57;21602;-32
2022/07/10 07:52:22;;;;;;;6.55;4.70;;;27.50;47.10;;;;;;4578868;57;21530;-31
2022/07/10 07:57:23;;;;;;;5.97;4.57;;;27.50;47.10;;;;;;4636715;57;21659;-30
2022/07/10 08:02:24;;;;;;;7.50;5.15;;;27.50;47.00;;;;;;4574949;57;21502;-28
2022/07/10 08:07:39;;;;;;;6.90;5.05;;;27.50;47.20;;;;;;4571005;57;21032;-30
2022/07/10 08:12:41;;;;;;;6.45;5.10;;;27.60;47.20;;;;;;4560967;61;21116;-32
2022/07/10 08:17:43;;;;;;;6.50;5.10;;;27.60;47.20;;;;;;4786630;57;21024;-29
2022/07/10 08:22:45;;;;;;;6.70;4.82;;;27.50;47.10;;;;;;4625108;57;21069;-30
2022/07/10 08:27:46;;;;;;;7.05;5.22;;;27.50;47.10;;;;;;4720991;57;21602;-31
2022/07/10 08:32:47;;;;;;;6.75;5.25;;;27.50;47.20;;;;;;4592650;57;21160;-31
2022/07/10 08:37:48;;;;;;;7.05;5.20;;;27.50;47.20;;;;;;4731320;57;21108;-31
2022/07/10 08:42:49;;;;;;;6.97;5.57;;;27.50;47.30;;;;;;4566908;57;21081;-31
2022/07/10 08:47:50;;;;;;;7.18;6.20;;;27.50;47.30;;;;;;4644066;57;21088;-32
2022/07/10 08:53:04;;;;;;;6.30;5.28;;;27.50;47.30;;;;;;4789414;57;21016;-30
2022/07/10 08:58:07;;;;;;;7.85;5.97;;;27.50;47.30;;;;;;4579295;57;21072;-32
2022/07/10 09:03:08;;;;;;;9.15;6.25;;;27.50;47.30;;;;;;4632067;57;21028;-29
2022/07/10 09:08:31;;;;;;;8.15;6.28;;;27.50;47.30;;;;;;4641541;57;21108;-30
2022/07/10 09:13:49;;;;;;;7.68;5.93;;;27.50;47.30;;;;;;4614959;57;21518;-35
2022/07/10 09:18:50;;;;;;;9.05;6.10;;;27.50;47.20;;;;;;4625762;57;21550;-31
2022/07/10 09:23:55;;;;;;;7.55;5.78;;;27.50;47.30;;;;;;4561314;57;21107;-31
2022/07/10 09:29:09;;;;;;;8.55;6.10;;;27.50;47.20;;;;;;4568147;57;21056;-29
2022/07/10 09:34:10;;;;;;;7.85;6.53;;;27.50;47.30;;;;;;4673181;57;21502;-30
2022/07/10 09:39:11;;;;;;;9.45;6.05;;;27.50;47.30;;;;;;4560939;61;21028;-30
2022/07/10 09:44:15;;;;;;;8.77;6.97;;;27.50;47.20;;;;;;4608404;57;21037;-32
2022/07/10 09:49:16;;;;;;;9.48;6.95;;;27.50;47.20;;;;;;4701037;57;21084;-30
2022/07/10 09:54:18;;;;;;;9.23;7.07;;;27.50;47.30;;;;;;4616917;57;21576;-28
2022/07/10 09:59:20;;;;;;;9.13;7.12;;;27.50;47.40;;;;;;4643499;57;21476;-31
2022/07/10 10:04:25;;;;;;;9.40;7.22;;;27.50;47.20;;;;;;4561357;61;21107;-32
2022/07/10 10:09:41;;;;;;;8.35;6.32;;;27.50;47.20;;;;;;4639790;57;21049;-32
2022/07/10 10:14:42;;;;;;;12.02;7.62;;;27.50;47.20;;;;;;4561474;61;21156;-31
2022/07/10 10:25:05;;;;;;;8.85;7.10;;;27.50;47.30;;;;;;4561099;57;21120;-32
2022/07/10 10:30:08;;;;;;;8.98;7.05;;;27.50;47.30;;;;;;4563314;57;21630;-29
2022/07/10 10:35:15;;;;;;;8.35;6.75;;;27.50;47.80;;;;;;4690134;57;21085;-31
2022/07/10 10:42:55;;;;;;;8.45;6.82;;;27.50;47.20;;;;;;4666219;57;21495;-30
2022/07/10 10:48:29;;;;;;;7.32;6.37;;;27.50;47.10;;;;;;4632209;57;21514;-32
2022/07/10 10:53:31;;;;;;;8.10;7.05;;;27.50;47.80;;;;;;4561406;61;21016;-30
2022/07/10 10:58:43;;;;;;;9.55;7.43;;;27.50;47.20;;;;;;4623579;57;21492;-32
2022/07/10 11:04:14;;;;;;;9.40;6.87;;;27.50;47.20;;;;;;4586485;57;21072;-30
2022/07/10 11:09:29;;;;;;;9.82;7.53;;;27.50;47.00;;;;;;4619225;57;21598;-32
2022/07/10 11:14:31;;;;;;;8.32;7.25;;;27.50;46.90;;;;;;4607044;57;21116;-29
2022/07/10 11:19:33;;;;;;;9.30;7.22;;;27.50;47.00;;;;;;4608525;57;21099;-31
2022/07/10 11:26:10;;;;;;;8.55;7.62;;;27.50;47.00;;;;;;4621361;57;21064;-34
2022/07/10 11:31:11;;;;;;;10.75;7.62;;;27.50;47.00;;;;;;4648737;57;21523;-29
2022/07/10 11:36:21;;;;;;;10.77;8.30;;;27.50;47.00;;;;;;4561201;58;21029;-30
2022/07/10 11:41:23;;;;;;;10.63;7.70;;;27.50;47.00;;;;;;4637734;57;21515;-28
2022/07/10 11:46:26;;;;;;;9.10;7.82;;;27.50;47.10;;;;;;4560817;61;21709;-33
2022/07/10 11:51:29;;;;;;;9.32;7.80;;;27.50;47.00;;;;;;4588238;57;21514;-28
2022/07/10 11:56:42;;;;;;;10.25;7.80;;;27.50;47.00;;;;;;4561294;61;21036;-34
2022/07/10 12:01:44;;;;;;;9.23;7.75;;;27.50;47.00;;;;;;4592680;57;21562;-30
2022/07/10 12:06:47;;;;;;;10.82;7.78;;;27.50;47.00;;;;;;4598425;57;21109;-30
2022/07/10 12:12:49;;;;;;;9.90;8.10;;;27.50;47.00;;;;;;4634472;57;21081;-31
2022/07/10 12:17:51;;;;;;;9.43;7.80;;;27.50;47.00;;;;;;4700181;57;21545;-32
2022/07/10 12:22:54;;;;;;;10.88;8.82;;;27.50;47.10;;;;;;4561310;61;21515;-33
2022/07/10 12:27:59;;;;;;;10.20;8.95;;;27.50;47.10;;;;;;4569341;57;21543;-30
2022/07/10 12:33:16;;;;;;;11.15;8.57;;;27.50;47.10;;;;;;4597318;57;21052;-28
2022/07/10 12:38:22;;;;;;;10.68;9.02;;;27.50;47.10;;;;;;4665110;57;21562;-31
2022/07/10 12:43:29;;;;;;;10.98;8.85;;;27.50;47.10;;;;;;4637400;57;21069;-32
2022/07/10 12:48:29;;;;;;;10.45;8.60;;;27.50;47.10;;;;;;4581410;57;21113;-30
2022/07/10 12:53:30;;;;;;;10.68;8.82;;;27.50;47.10;;;;;;4589365;57;21088;-29
2022/07/10 12:58:33;;;;;;;11.55;8.98;;;27.50;47.10;;;;;;4654089;57;21068;-29
2022/07/10 13:03:34;;;;;;;10.27;8.57;;;27.50;47.20;;;;;;4693826;57;21581;-36
2022/07/10 13:08:46;;;;;;;11.20;8.77;;;27.50;47.30;;;;;;5007643;57;21479;-32
2022/07/10 13:13:48;;;;;;;11.57;8.88;;;27.50;47.10;;;;;;4640507;57;21621;-23
2022/07/10 13:18:49;;;;;;;11.15;8.98;;;27.50;47.20;;;;;;4583698;57;21028;-29
2022/07/10 13:23:50;;;;;;;11.23;9.07;;;27.50;47.20;;;;;;4672199;57;21016;-35
2022/07/10 13:28:51;;;;;;;10.52;8.50;;;27.50;47.10;;;;;;4634930;57;21606;-29
2022/07/10 13:33:52;;;;;;;9.80;8.30;;;27.50;47.20;;;;;;4668692;57;21036;-32
2022/07/10 13:38:54;;;;;;;9.77;8.20;;;27.50;47.10;;;;;;4741596;57;21132;-32
2022/07/10 13:43:55;;;;;;;10.18;8.50;;;27.60;47.20;;;;;;4561833;59;21650;-32
2022/07/10 13:48:56;;;;;;;10.35;8.32;;;27.50;47.20;;;;;;4616917;57;21159;-32
2022/07/10 13:53:57;;;;;;;10.05;8.30;;;27.50;47.20;;;;;;4573979;57;21538;-34
2022/07/10 13:58:58;;;;;;;10.27;8.52;;;27.50;47.20;;;;;;4600109;57;21037;-32
2022/07/10 14:03:59;;;;;;;10.10;8.48;;;27.50;47.10;;;;;;4628540;57;21085;-30
2022/07/10 14:09:00;;;;;;;10.57;9.25;;;27.50;47.10;;;;;;4560978;61;21056;-32
2022/07/10 14:14:01;;;;;;;11.55;9.40;;;27.50;47.10;;;;;;4561332;61;21064;-31
2022/07/10 14:19:02;;;;;;;10.75;9.00;;;27.50;47.10;;;;;;4742416;57;21068;-28
2022/07/10 14:24:04;;;;;;;11.60;8.90;;;27.50;47.10;;;;;;4569513;57;21080;-32
2022/07/10 14:29:05;;;;;;;10.70;9.30;;;27.50;47.20;;;;;;4560553;61;21522;-32
2022/07/10 14:34:06;;;;;;;9.70;8.57;;;27.50;47.10;;;;;;4680510;57;21033;-29
2022/07/10 14:39:07;;;;;;;12.77;9.25;;;27.50;47.10;;;;;;4627261;57;21566;-29
2022/07/10 14:44:07;;;;;;;10.05;8.30;;;27.50;47.10;;;;;;4637762;57;21036;-32
2022/07/10 14:49:09;;;;;;;9.57;8.43;;;27.50;47.10;;;;;;4614019;57;21032;-30
2022/07/10 14:54:10;;;;;;;10.23;8.13;;;27.50;47.10;;;;;;4628953;57;21106;-31
2022/07/10 14:59:11;;;;;;;10.65;8.20;;;27.50;47.10;;;;;;4639029;57;21563;-31
2022/07/10 15:04:12;;;;;;;10.73;8.60;;;27.50;47.10;;;;;;4668161;57;21080;-34
2022/07/10 15:09:13;;;;;;;10.80;8.45;;;27.50;47.00;;;;;;4690558;57;21036;-33
2022/07/10 15:14:13;;;;;;;10.63;8.52;;;27.50;47.10;;;;;;4591330;57;21096;-33
2022/07/10 15:19:14;;;;;;;10.70;8.73;;;27.50;47.10;;;;;;4563810;57;21032;-31
2022/07/10 15:24:15;;;;;;;11.18;8.13;;;27.50;47.00;;;;;;4641934;57;21088;-32
2022/07/10 15:29:16;;;;;;;9.95;8.27;;;27.50;47.10;;;;;;4617739;57;21128;-29
2022/07/10 15:34:17;;;;;;;10.15;8.68;;;27.50;47.10;;;;;;4803748;57;21519;-31
2022/07/10 15:39:19;;;;;;;9.85;8.35;;;27.50;47.20;;;;;;4733480;57;21040;-30
2022/07/10 15:44:20;;;;;;;8.88;7.60;;;27.50;47.20;;;;;;4994210;57;21480;-32
2022/07/10 15:49:20;;;;;;;9.40;8.13;;;27.50;47.20;;;;;;4561644;58;21053;-30
2022/07/10 15:54:22;;;;;;;9.10;7.95;;;27.50;47.20;;;;;;4683878;57;21028;-33
2022/07/10 15:59:23;;;;;;;9.05;7.95;;;27.50;47.20;;;;;;4561411;61;21097;-31
2022/07/10 16:04:24;;;;;;;9.63;7.70;;;27.50;47.20;;;;;;4561305;61;21048;-30
2022/07/10 16:09:25;;;;;;;9.10;7.78;;;27.50;47.20;;;;;;4589201;57;21028;-32
2022/07/10 16:14:26;;;;;;;9.20;7.47;;;27.50;47.30;;;;;;4596542;57;21082;-35
2022/07/10 16:19:27;;;;;;;8.20;7.37;;;27.50;47.30;;;;;;4676139;57;21538;-31
2022/07/10 16:24:28;;;;;;;9.23;7.60;;;27.50;47.30;;;;;;4813498;57;21861;-33
2022/07/10 16:29:31;;;;;;;9.23;7.37;;;27.50;47.20;;;;;;4561414;61;21021;-33
2022/07/10 16:34:32;;;;;;;8.48;7.18;;;27.50;47.40;;;;;;4578760;57;21578;-31
2022/07/10 16:39:32;;;;;;;8.70;7.80;;;27.50;47.40;;;;;;4658252;57;21092;-35
2022/07/10 16:44:33;;;;;;;8.85;7.28;;;27.50;47.40;;;;;;4835891;57;21083;-32
2022/07/10 16:49:34;;;;;;;7.78;6.80;;;27.50;47.30;;;;;;4670676;57;21020;-30
2022/07/10 16:54:36;;;;;;;8.43;6.90;;;27.50;47.40;;;;;;4709037;57;21499;-33
2022/07/10 16:59:37;;;;;;;8.60;7.18;;;27.50;48.10;;;;;;4561626;59;21483;-29
2022/07/10 17:04:38;;;;;;;9.82;7.70;;;27.50;47.50;;;;;;4689406;57;21033;-30
2022/07/10 17:09:39;;;;;;;8.50;6.95;;;27.50;47.50;;;;;;4561588;61;21491;-31
2022/07/10 17:14:40;;;;;;;8.82;6.93;;;27.50;47.40;;;;;;4575866;57;21542;-27
2022/07/10 17:19:41;;;;;;;8.23;7.43;;;27.50;48.00;;;;;;4610968;57;21135;-29
2022/07/10 17:24:41;;;;;;;8.05;6.97;;;27.50;47.50;;;;;;4668388;57;21084;-31
2022/07/10 17:29:44;;;;;;;8.00;6.95;;;27.50;47.50;;;;;;4637532;57;21123;-30
2022/07/10 17:34:44;;;;;;;8.32;7.45;;;27.50;47.40;;;;;;4589648;57;21595;-29
2022/07/10 17:39:45;;;;;;;7.62;6.00;;;27.50;47.40;;;;;;5006168;57;21045;-32
2022/07/10 17:44:46;;;;;;;7.97;6.75;;;27.50;47.30;;;;;;4561508;61;21119;-30
2022/07/10 17:49:47;;;;;;;7.72;6.93;;;27.50;47.30;;;;;;4596688;57;21140;-32
2022/07/10 17:54:48;;;;;;;7.78;6.60;;;27.50;47.30;;;;;;4561718;61;21028;-34
2022/07/10 17:59:49;;;;;;;8.02;6.70;;;27.50;47.30;;;;;;4561476;61;21543;-31
2022/07/10 18:04:50;;;;;;;8.55;6.80;;;27.50;47.50;;;;;;4611462;57;21111;-32
2022/07/10 18:09:51;;;;;;;7.62;6.82;;;27.50;47.50;;;;;;4654230;57;21600;-32
2022/07/10 18:14:52;;;;;;;7.62;6.40;;;27.50;47.50;;;;;;4561367;61;21051;-33
2022/07/10 18:19:52;;;;;;;7.82;6.85;;;27.50;47.50;;;;;;4577374;57;21020;-33
2022/07/10 18:24:53;;;;;;;8.13;7.28;;;27.50;47.50;;;;;;4598755;57;21555;-32
2022/07/10 18:29:54;;;;;;;7.70;6.90;;;27.40;47.40;;;;;;4668014;57;21071;-29
2022/07/10 18:34:55;;;;;;;8.98;6.97;;;27.40;47.40;;;;;;4620036;57;21176;-33
2022/07/10 18:39:56;;;;;;;7.70;6.87;;;27.40;47.50;;;;;;4973300;57;21518;-31
2022/07/10 18:44:57;;;;;;;7.62;6.65;;;27.40;47.50;;;;;;4645623;57;21495;-31
2022/07/10 18:49:57;;;;;;;7.32;6.57;;;27.50;47.60;;;;;;4704143;57;21515;-30
2022/07/10 18:54:58;;;;;;;7.60;6.57;;;27.40;47.60;;;;;;4561192;61;21033;-32
2022/07/10 18:59:59;;;;;;;8.35;7.28;;;27.50;47.70;;;;;;4637941;57;21048;-29
2022/07/10 19:05:00;;;;;;;7.82;7.00;;;27.40;47.70;;;;;;4561400;61;21100;-30
2022/07/10 19:10:02;;;;;;;8.05;6.40;;;27.40;47.70;;;;;;4608792;57;21479;-30
2022/07/10 19:15:04;;;;;;;7.65;6.95;;;27.40;47.80;;;;;;4607285;57;21029;-30
2022/07/10 19:20:09;;;;;;;7.43;6.50;;;27.40;47.80;;;;;;4604561;57;21013;-30
2022/07/10 19:25:10;;;;;;;7.07;6.27;;;27.50;47.90;;;;;;4561616;61;21195;-30
2022/07/10 19:30:13;;;;;;;9.10;7.18;;;27.40;47.90;;;;;;4615572;57;21028;-29
2022/07/10 19:35:15;;;;;;;7.97;7.12;;;27.40;47.90;;;;;;4604499;57;21534;-28
2022/07/10 19:40:16;;;;;;;8.23;7.30;;;27.40;47.90;;;;;;4641410;57;21499;-32
2022/07/10 19:45:17;;;;;;;8.32;7.03;;;27.40;47.90;;;;;;4607735;57;21057;-30
2022/07/10 19:50:18;;;;;;;8.30;7.50;;;27.40;48.00;;;;;;4703127;57;21507;-31
2022/07/10 19:55:19;;;;;;;7.97;7.18;;;27.40;48.00;;;;;;4657501;57;21025;-36
2022/07/10 20:00:20;;;;;;;9.27;7.68;;;27.40;48.00;;;;;;4909227;57;21044;-30
2022/07/10 20:05:21;;;;;;;7.72;6.87;;;27.40;48.50;;;;;;4665688;57;21093;-30
2022/07/10 20:10:22;;;;;;;8.27;7.32;;;27.40;48.10;;;;;;4561526;61;21076;-30
2022/07/10 20:15:23;;;;;;;8.35;7.35;;;27.40;48.10;;;;;;4781723;57;21092;-30
2022/07/10 20:20:24;;;;;;;8.23;6.65;;;27.40;48.10;;;;;;4779363;57;21020;-29
2022/07/10 20:25:25;;;;;;;8.73;7.25;;;27.40;48.10;;;;;;4976513;57;21339;-31
2022/07/10 20:30:26;;;;;;;8.25;6.95;;;27.40;48.10;;;;;;4569670;57;21590;-31
2022/07/10 20:35:27;;;;;;;9.60;7.28;;;27.40;48.20;;;;;;4579970;57;21036;-29
2022/07/10 20:40:27;;;;;;;8.57;7.03;;;27.40;48.30;;;;;;4644564;57;21045;-30
2022/07/10 20:45:28;;;;;;;7.43;6.50;;;27.40;48.90;;;;;;4724367;57;21045;-30
2022/07/10 20:50:29;;;;;;;8.65;6.82;;;27.40;48.20;;;;;;4561455;61;21056;-33
2022/07/10 20:55:30;;;;;;;7.50;6.57;;;27.40;48.20;;;;;;4715268;57;21036;-34
2022/07/10 21:00:31;;;;;;;8.18;7.12;;;27.40;48.40;;;;;;4713754;57;21071;-33
2022/07/10 21:05:35;;;;;;;6.75;6.05;;;27.40;48.40;;;;;;4734379;57;21109;-32
2022/07/10 21:10:42;;;;;;;8.05;7.05;;;27.40;48.30;;;;;;4617087;57;21616;-32
2022/07/10 21:15:45;;;;;;;7.97;6.40;;;27.40;48.30;;;;;;4561298;59;21097;-28
2022/07/10 21:20:46;;;;;;;7.32;6.57;;;27.40;48.30;;;;;;4727483;57;21514;-33
2022/07/10 21:25:47;;;;;;;7.68;6.40;;;27.40;48.40;;;;;;4724188;57;21060;-33
2022/07/10 21:30:48;;;;;;;6.72;6.03;;;27.40;48.40;;;;;;4740071;57;21037;-35
2022/07/10 21:35:49;;;;;;;7.32;6.25;;;27.40;48.40;;;;;;4561114;61;21033;-29
2022/07/10 21:40:50;;;;;;;7.57;6.15;;;27.40;48.50;;;;;;4909121;57;21507;-30
2022/07/10 21:45:51;;;;;;;7.18;6.25;;;27.40;48.60;;;;;;4616362;57;21096;-31
2022/07/10 21:50:53;;;;;;;8.85;6.20;;;27.40;48.60;;;;;;4668080;57;21033;-31
2022/07/10 21:55:54;;;;;;;7.43;5.95;;;27.40;48.60;;;;;;4695246;57;21514;-32
2022/07/10 22:00:55;;;;;;;6.70;6.00;;;27.40;48.60;;;;;;5008351;57;21068;-32
2022/07/10 22:05:56;;;;;;;6.90;5.90;;;27.40;48.60;;;;;;4579810;57;21519;-30
2022/07/10 22:10:57;;;;;;;6.82;6.10;;;27.40;48.70;;;;;;4578343;57;21028;-30
2022/07/10 22:15:57;;;;;;;7.45;6.28;;;27.30;48.60;;;;;;4561821;61;21032;-29
2022/07/10 22:20:58;;;;;;;6.55;5.85;;;27.30;48.70;;;;;;4614729;57;21070;-31
2022/07/10 22:25:59;;;;;;;6.18;5.10;;;27.40;48.80;;;;;;4606663;57;21534;-29
2022/07/10 22:31:18;;;;;;;6.62;5.60;;;27.30;48.90;;;;;;4610225;57;21594;-32
2022/07/10 22:36:19;;;;;;;5.85;5.22;;;27.40;48.80;;;;;;4687264;57;21546;-30
2022/07/10 22:41:21;;;;;;;6.93;5.95;;;27.40;48.90;;;;;;4612005;57;21088;-32
2022/07/10 22:46:23;;;;;;;6.47;5.53;;;27.40;48.90;;;;;;4573112;57;21527;-33
2022/07/10 22:51:24;;;;;;;5.62;5.05;;;27.40;49.00;;;;;;4589725;57;21512;-31
2022/07/10 22:56:26;;;;;;;6.62;5.50;;;27.30;49.00;;;;;;4561787;58;21567;-29
2022/07/10 23:01:26;;;;;;;6.12;5.53;;;27.30;49.00;;;;;;4561339;61;21498;-29
2022/07/10 23:06:27;;;;;;;6.62;5.53;;;27.40;49.10;;;;;;4671836;57;21096;-32
2022/07/10 23:11:28;;;;;;;5.87;4.97;;;27.40;49.10;;;;;;4638961;57;21550;-32
2022/07/10 23:16:29;;;;;;;5.68;5.10;;;27.40;49.20;;;;;;4586836;57;21116;-30
2022/07/10 23:21:30;;;;;;;5.47;4.80;;;27.30;49.10;;;;;;4561609;59;21064;-31
2022/07/10 23:26:31;;;;;;;5.82;5.25;;;27.40;49.20;;;;;;4752271;57;21619;-35
2022/07/10 23:31:31;;;;;;;5.82;5.10;;;27.40;49.20;;;;;;4587912;57;21499;-30
2022/07/10 23:36:32;;;;;;;5.32;4.75;;;27.30;49.30;;;;;;4577890;57;21049;-34
2022/07/10 23:41:33;;;;;;;5.65;5.05;;;27.40;49.30;;;;;;4704103;57;21045;-32
2022/07/10 23:46:34;;;;;;;5.35;4.85;;;27.30;49.20;;;;;;4768781;57;21065;-30
2022/07/10 23:51:34;;;;;;;5.87;4.75;;;27.30;49.30;;;;;;4618401;57;21506;-29
2022/07/10 23:56:35;;;;;;;7.43;4.80;;;27.40;49.40;;;;;;4696215;57;21019;-31
